createdAt,value
2023-05-19T00:00:25.181Z,11.40
2023-05-19T00:02:53.389Z,11.40
2023-05-19T00:05:23.096Z,11.40
2023-05-19T00:07:53.724Z,11.40
2023-05-19T00:10:21.894Z,11.30
2023-05-19T00:12:50.561Z,11.30
2023-05-19T00:15:19.944Z,11.20
2023-05-19T00:17:47.748Z,11.20
2023-05-19T00:20:15.731Z,11.20
2023-05-19T00:22:48.798Z,11.10
2023-05-19T00:25:17.825Z,11.10
2023-05-19T00:27:45.435Z,11.10
2023-05-19T00:30:13.707Z,11.00
2023-05-19T00:32:42.068Z,11.00
2023-05-19T00:35:10.084Z,11.00
2023-05-19T00:37:41.357Z,11.00
2023-05-19T00:40:10.810Z,11.00
2023-05-19T00:42:39.969Z,11.00
2023-05-19T00:45:08.271Z,10.90
2023-05-19T00:47:35.825Z,10.90
2023-05-19T00:50:03.458Z,10.90
2023-05-19T00:52:31.285Z,10.80
2023-05-19T00:55:00.834Z,10.80
2023-05-19T00:57:28.618Z,10.80
2023-05-19T00:59:57.609Z,10.80
2023-05-19T01:02:25.884Z,10.80
2023-05-19T01:04:53.756Z,10.70
2023-05-19T01:07:21.590Z,10.70
2023-05-19T01:09:54.406Z,10.70
2023-05-19T01:12:21.952Z,10.60
2023-05-19T01:14:49.602Z,10.60
2023-05-19T01:17:27.097Z,10.60
2023-05-19T01:20:06.556Z,10.60
2023-05-19T01:23:08.522Z,10.60
2023-05-19T01:26:09.501Z,10.50
2023-05-19T01:29:03.624Z,10.50
2023-05-19T01:31:33.910Z,10.50
2023-05-19T01:34:04.689Z,10.50
2023-05-19T01:36:33.733Z,10.50
2023-05-19T01:39:06.780Z,10.40
2023-05-19T01:41:34.919Z,10.40
2023-05-19T01:44:02.750Z,10.40
2023-05-19T01:46:30.424Z,10.40
2023-05-19T01:48:59.949Z,10.40
2023-05-19T01:51:28.392Z,10.40
2023-05-19T01:53:59.273Z,10.40
2023-05-19T01:56:34.059Z,10.30
2023-05-19T01:59:16.630Z,10.30
2023-05-19T02:01:52.899Z,10.30
2023-05-19T02:04:29.346Z,10.30
2023-05-19T02:07:03.632Z,10.30
2023-05-19T02:09:41.020Z,10.20
2023-05-19T02:12:15.852Z,10.20
2023-05-19T02:14:50.107Z,10.20
2023-05-19T02:17:19.924Z,10.20
2023-05-19T02:19:48.920Z,10.20
2023-05-19T02:22:16.446Z,10.10
2023-05-19T02:24:46.609Z,10.10
2023-05-19T02:27:14.994Z,10.10
2023-05-19T02:29:44.265Z,10.10
2023-05-19T02:32:12.269Z,10.10
2023-05-19T02:34:42.312Z,10.10
2023-05-19T02:37:12.544Z,10.00
2023-05-19T02:39:40.424Z,10.00
2023-05-19T02:42:08.215Z,10.00
2023-05-19T02:44:36.348Z,10.00
2023-05-19T02:47:04.126Z,10.00
2023-05-19T02:49:35.779Z,9.90
2023-05-19T02:52:03.615Z,9.90
2023-05-19T02:54:33.400Z,10.00
2023-05-19T02:57:01.831Z,9.90
2023-05-19T02:59:29.337Z,10.00
2023-05-19T03:01:59.888Z,9.90
2023-05-19T03:04:27.979Z,10.00
2023-05-19T03:06:55.492Z,10.00
2023-05-19T03:09:23.131Z,10.00
2023-05-19T03:11:52.001Z,10.00
2023-05-19T03:14:23.874Z,10.00
2023-05-19T03:16:54.983Z,10.00
2023-05-19T03:19:24.008Z,10.00
2023-05-19T03:21:51.718Z,10.00
2023-05-19T03:24:19.341Z,10.00
2023-05-19T03:26:47.820Z,10.00
2023-05-19T03:29:16.809Z,10.00
2023-05-19T03:31:44.698Z,9.90
2023-05-19T03:34:14.246Z,10.00
2023-05-19T03:36:42.020Z,10.00
2023-05-19T03:39:15.456Z,10.00
2023-05-19T03:41:43.334Z,10.00
2023-05-19T03:44:11.590Z,10.00
2023-05-19T03:46:40.648Z,10.00
2023-05-19T03:49:41.434Z,10.00
2023-05-19T03:52:38.641Z,10.00
2023-05-19T03:55:22.956Z,10.00
2023-05-19T03:57:50.455Z,10.00
2023-05-19T04:00:18.460Z,10.00
2023-05-19T04:02:47.452Z,10.00
2023-05-19T04:05:16.167Z,10.10
2023-05-19T04:07:43.815Z,10.10
2023-05-19T04:10:12.065Z,10.10
2023-05-19T04:12:40.482Z,10.10
2023-05-19T04:15:11.434Z,10.20
2023-05-19T04:17:39.580Z,10.20
2023-05-19T04:20:10.084Z,10.20
2023-05-19T04:22:37.627Z,10.20
2023-05-19T04:25:06.051Z,10.20
2023-05-19T04:27:36.700Z,10.30
2023-05-19T04:30:08.469Z,10.30
2023-05-19T04:32:37.546Z,10.30
2023-05-19T04:35:10.929Z,10.30
2023-05-19T04:37:39.157Z,10.40
2023-05-19T04:40:11.171Z,10.40
2023-05-19T04:42:42.723Z,10.40
2023-05-19T04:45:13.861Z,10.40
2023-05-19T04:47:44.495Z,10.40
2023-05-19T04:50:14.224Z,10.50
2023-05-19T04:52:42.573Z,10.50
2023-05-19T04:55:23.350Z,10.50
2023-05-19T04:57:51.016Z,10.60
2023-05-19T05:00:21.546Z,10.60
2023-05-19T05:03:07.641Z,10.60
2023-05-19T05:05:56.759Z,10.60
2023-05-19T05:08:24.247Z,10.70
2023-05-19T05:10:53.199Z,10.70
2023-05-19T05:13:22.967Z,10.80
2023-05-19T05:15:54.323Z,10.80
2023-05-19T05:18:25.411Z,10.80
2023-05-19T05:20:55.393Z,10.90
2023-05-19T05:23:23.580Z,10.90
2023-05-19T05:25:52.320Z,10.90
2023-05-19T05:28:23.875Z,10.90
2023-05-19T05:31:09.573Z,11.00
2023-05-19T05:33:38.535Z,11.00
2023-05-19T05:36:08.239Z,11.10
2023-05-19T05:38:36.280Z,11.10
2023-05-19T05:41:06.831Z,11.10
2023-05-19T05:43:43.573Z,11.10
2023-05-19T05:46:15.133Z,11.20
2023-05-19T05:48:43.195Z,11.20
2023-05-19T05:51:13.549Z,11.20
2023-05-19T05:53:43.326Z,11.30
2023-05-19T05:56:13.102Z,11.30
2023-05-19T05:58:46.929Z,11.40
2023-05-19T06:01:16.779Z,11.40
2023-05-19T06:03:45.237Z,11.50
2023-05-19T06:06:17.587Z,11.50
2023-05-19T06:08:45.033Z,11.60
2023-05-19T06:11:12.783Z,11.70
2023-05-19T06:13:42.042Z,11.70
2023-05-19T06:16:14.719Z,11.80
2023-05-19T06:18:45.947Z,11.90
2023-05-19T06:21:13.708Z,12.00
2023-05-19T06:23:45.285Z,12.10
2023-05-19T06:26:13.612Z,12.20
2023-05-19T06:28:41.097Z,12.30
2023-05-19T06:31:08.612Z,12.40
2023-05-19T06:33:46.881Z,12.50
2023-05-19T06:36:14.477Z,12.60
2023-05-19T06:38:45.429Z,12.80
2023-05-19T06:41:13.024Z,12.90
2023-05-19T06:43:42.242Z,13.00
2023-05-19T06:46:14.718Z,13.10
2023-05-19T06:48:44.325Z,13.20
2023-05-19T06:51:12.391Z,13.30
2023-05-19T06:53:41.505Z,13.40
2023-05-19T06:56:12.030Z,13.50
2023-05-19T06:58:40.897Z,13.60
2023-05-19T07:01:08.714Z,13.70
2023-05-19T07:03:43.140Z,13.80
2023-05-19T07:06:12.791Z,13.80
2023-05-19T07:08:41.655Z,13.90
2023-05-19T07:11:12.763Z,14.00
2023-05-19T07:13:41.602Z,14.10
2023-05-19T07:16:09.824Z,14.20
2023-05-19T07:18:37.353Z,14.30
2023-05-19T07:21:04.813Z,14.40
2023-05-19T07:23:32.473Z,14.50
2023-05-19T07:26:00.094Z,14.60
2023-05-19T07:28:28.937Z,14.70
2023-05-19T07:30:56.562Z,14.90
2023-05-19T07:33:24.142Z,15.00
2023-05-19T07:35:51.726Z,15.10
2023-05-19T07:38:20.086Z,15.20
2023-05-19T07:40:47.600Z,15.30
2023-05-19T07:43:15.163Z,15.40
2023-05-19T07:45:44.039Z,15.50
2023-05-19T07:48:11.585Z,15.70
2023-05-19T07:50:42.085Z,15.80
2023-05-19T07:53:09.546Z,15.90
2023-05-19T07:55:38.346Z,16.10
2023-05-19T07:58:05.883Z,16.10
2023-05-19T08:00:34.308Z,16.20
2023-05-19T08:03:03.810Z,16.30
2023-05-19T08:05:31.383Z,16.40
2023-05-19T08:07:58.846Z,16.40
2023-05-19T08:10:28.041Z,16.50
2023-05-19T08:13:03.018Z,16.50
2023-05-19T08:15:30.518Z,16.60
2023-05-19T08:17:58.263Z,16.70
2023-05-19T08:20:27.473Z,16.80
2023-05-19T08:22:55.016Z,16.90
2023-05-19T08:25:22.580Z,16.90
2023-05-19T08:27:50.065Z,17.00
2023-05-19T08:30:18.332Z,17.00
2023-05-19T08:32:45.900Z,17.10
2023-05-19T08:35:13.421Z,17.30
2023-05-19T08:37:42.222Z,17.40
2023-05-19T08:40:16.241Z,17.40
2023-05-19T08:42:44.729Z,17.40
2023-05-19T08:45:12.673Z,17.50
2023-05-19T08:47:41.538Z,17.70
2023-05-19T08:50:11.467Z,17.80
2023-05-19T08:52:53.101Z,17.90
2023-05-19T08:55:33.841Z,18.00
2023-05-19T08:58:03.491Z,18.10
2023-05-19T09:00:31.498Z,18.20
2023-05-19T09:03:10.740Z,18.30
2023-05-19T09:05:46.801Z,18.50
2023-05-19T09:08:16.165Z,18.60
2023-05-19T09:10:43.646Z,18.70
2023-05-19T09:13:11.214Z,18.80
2023-05-19T09:15:41.358Z,19.00
2023-05-19T09:18:10.581Z,19.00
2023-05-19T09:20:40.703Z,19.10
2023-05-19T09:23:08.605Z,19.10
2023-05-19T09:25:37.616Z,19.20
2023-05-19T09:28:08.768Z,19.20
2023-05-19T09:30:36.304Z,19.20
2023-05-19T09:33:08.412Z,19.30
2023-05-19T09:35:37.024Z,19.30
2023-05-19T09:38:04.577Z,19.30
2023-05-19T09:40:33.501Z,19.40
2023-05-19T09:43:07.838Z,19.40
2023-05-19T09:45:35.413Z,19.50
2023-05-19T09:48:04.731Z,19.50
2023-05-19T09:50:34.016Z,19.50
2023-05-19T09:53:03.282Z,19.40
2023-05-19T09:55:32.924Z,19.40
2023-05-19T09:58:04.325Z,19.40
2023-05-19T10:00:33.388Z,19.40
2023-05-19T10:03:03.984Z,19.40
2023-05-19T10:05:32.582Z,19.50
2023-05-19T10:08:00.458Z,19.50
2023-05-19T10:10:31.198Z,19.60
2023-05-19T10:13:00.483Z,19.60
2023-05-19T10:15:29.768Z,19.70
2023-05-19T10:17:57.595Z,19.80
2023-05-19T10:20:27.306Z,19.80
2023-05-19T10:22:55.203Z,19.90
2023-05-19T10:25:24.506Z,20.00
2023-05-19T10:27:57.812Z,20.10
2023-05-19T10:30:29.838Z,20.10
2023-05-19T10:33:00.912Z,20.10
2023-05-19T10:35:52.795Z,20.20
2023-05-19T10:38:29.164Z,20.30
2023-05-19T10:41:02.816Z,20.30
2023-05-19T10:44:09.388Z,20.30
2023-05-19T10:46:37.794Z,20.30
2023-05-19T10:49:08.137Z,20.30
2023-05-19T10:51:37.152Z,20.30
2023-05-19T10:54:14.518Z,20.30
2023-05-19T10:56:45.803Z,20.30
2023-05-19T10:59:33.273Z,20.20
2023-05-19T11:02:04.072Z,20.20
2023-05-19T11:05:09.182Z,20.20
2023-05-19T11:07:36.795Z,20.20
2023-05-19T11:10:07.892Z,20.20
2023-05-19T11:12:43.411Z,20.10
2023-05-19T11:15:18.523Z,20.20
2023-05-19T11:17:52.271Z,20.30
2023-05-19T11:20:25.828Z,20.30
2023-05-19T11:23:07.279Z,20.30
2023-05-19T11:25:45.712Z,20.30
2023-05-19T11:28:19.095Z,20.30
2023-05-19T11:30:51.858Z,20.40
2023-05-19T11:33:20.887Z,20.50
2023-05-19T11:35:51.206Z,20.40
2023-05-19T11:38:19.097Z,20.50
2023-05-19T11:40:48.168Z,20.50
2023-05-19T11:43:16.735Z,20.50
2023-05-19T11:45:44.923Z,20.60
2023-05-19T11:48:12.931Z,20.60
2023-05-19T11:50:41.870Z,20.50
2023-05-19T11:53:12.733Z,20.60
2023-05-19T11:55:44.302Z,20.60
2023-05-19T11:58:12.407Z,20.60
2023-05-19T12:00:41.633Z,20.50
2023-05-19T12:03:09.920Z,20.50
2023-05-19T12:05:43.137Z,20.50
2023-05-19T12:08:13.488Z,20.60
2023-05-19T12:10:41.057Z,20.60
2023-05-19T12:13:09.952Z,20.60
2023-05-19T12:15:38.725Z,20.70
2023-05-19T12:18:07.615Z,20.80
2023-05-19T12:20:36.187Z,20.90
2023-05-19T12:23:04.461Z,21.00
2023-05-19T12:25:33.622Z,21.00
2023-05-19T12:28:03.110Z,21.10
2023-05-19T12:30:33.094Z,21.30
2023-05-19T12:33:02.562Z,21.30
2023-05-19T12:35:36.084Z,21.30
2023-05-19T12:38:04.856Z,21.30
2023-05-19T12:40:36.651Z,21.50
2023-05-19T12:43:04.573Z,21.60
2023-05-19T12:45:34.460Z,21.50
2023-05-19T12:48:04.228Z,21.40
2023-05-19T12:50:32.853Z,21.40
2023-05-19T12:53:00.634Z,21.50
2023-05-19T12:55:28.218Z,21.50
2023-05-19T12:57:58.535Z,21.60
2023-05-19T13:00:28.969Z,21.70
2023-05-19T13:03:01.956Z,21.80
2023-05-19T13:05:34.444Z,21.80
2023-05-19T13:08:05.072Z,21.90
2023-05-19T13:10:34.613Z,22.00
2023-05-19T13:13:04.649Z,22.00
2023-05-19T13:15:37.612Z,22.00
2023-05-19T13:18:07.154Z,22.00
2023-05-19T13:20:35.601Z,22.00
2023-05-19T13:23:04.547Z,22.10
2023-05-19T13:25:33.971Z,22.10
2023-05-19T13:28:05.569Z,22.00
2023-05-19T13:30:34.060Z,22.00
2023-05-19T13:33:02.261Z,22.00
2023-05-19T13:35:30.731Z,22.00
2023-05-19T13:37:58.330Z,21.80
2023-05-19T13:40:28.186Z,21.70
2023-05-19T13:42:55.678Z,21.70
2023-05-19T13:45:24.645Z,21.70
2023-05-19T13:47:52.175Z,21.60
2023-05-19T13:50:19.711Z,21.50
2023-05-19T13:52:50.168Z,21.40
2023-05-19T13:55:18.983Z,21.40
2023-05-19T13:57:46.376Z,21.40
2023-05-19T14:00:14.786Z,21.30
2023-05-19T14:02:44.426Z,21.30
2023-05-19T14:05:11.982Z,21.20
2023-05-19T14:07:39.555Z,21.20
2023-05-19T14:10:08.100Z,21.20
2023-05-19T14:12:49.363Z,21.20
2023-05-19T14:15:23.810Z,21.20
2023-05-19T14:17:53.578Z,21.20
2023-05-19T14:20:21.802Z,21.20
2023-05-19T14:22:49.255Z,21.20
2023-05-19T14:25:16.879Z,21.10
2023-05-19T14:27:44.447Z,21.20
2023-05-19T14:30:12.408Z,21.30
2023-05-19T14:32:42.673Z,21.30
2023-05-19T14:35:11.641Z,21.30
2023-05-19T14:37:39.209Z,21.20
2023-05-19T14:40:07.749Z,21.30
2023-05-19T14:42:35.643Z,21.30
2023-05-19T14:45:03.512Z,21.20
2023-05-19T14:47:31.208Z,21.20
2023-05-19T14:49:58.695Z,21.10
2023-05-19T14:52:27.618Z,21.00
2023-05-19T14:54:57.117Z,21.00
2023-05-19T14:57:24.552Z,21.10
2023-05-19T14:59:52.130Z,21.00
2023-05-19T15:02:19.650Z,20.90
2023-05-19T15:04:47.110Z,20.70
2023-05-19T15:07:14.633Z,20.60
2023-05-19T15:09:43.579Z,20.70
2023-05-19T15:12:11.098Z,20.60
2023-05-19T15:14:38.616Z,20.60
2023-05-19T15:17:06.064Z,20.60
2023-05-19T15:19:33.623Z,20.60
2023-05-19T15:22:01.494Z,20.50
2023-05-19T15:24:28.976Z,20.50
2023-05-19T15:26:58.053Z,20.50
2023-05-19T15:29:25.528Z,20.40
2023-05-19T15:31:53.207Z,20.40
2023-05-19T15:34:20.840Z,20.40
2023-05-19T15:36:48.490Z,20.40
2023-05-19T15:39:16.040Z,20.40
2023-05-19T15:41:43.488Z,20.50
2023-05-19T15:44:12.469Z,20.60
2023-05-19T15:46:40.056Z,20.60
2023-05-19T15:49:07.709Z,20.60
2023-05-19T15:51:35.957Z,20.50
2023-05-19T15:54:03.510Z,20.40
2023-05-19T15:56:31.097Z,20.40
2023-05-19T15:58:58.556Z,20.30
2023-05-19T16:01:27.508Z,20.30
2023-05-19T16:03:57.464Z,20.30
2023-05-19T16:06:25.182Z,20.20
2023-05-19T16:08:53.363Z,20.10
2023-05-19T16:11:22.045Z,20.00
2023-05-19T16:13:49.794Z,19.90
2023-05-19T16:16:17.943Z,19.90
2023-05-19T16:18:46.889Z,19.90
2023-05-19T16:21:14.721Z,19.80
2023-05-19T16:23:42.366Z,19.80
2023-05-19T16:26:09.818Z,19.70
2023-05-19T16:28:39.898Z,19.60
2023-05-19T16:31:07.732Z,19.60
2023-05-19T16:33:35.154Z,19.70
2023-05-19T16:36:05.740Z,19.60
2023-05-19T16:38:34.057Z,19.50
2023-05-19T16:41:01.515Z,19.40
2023-05-19T16:43:29.092Z,19.40
2023-05-19T16:45:57.921Z,19.30
2023-05-19T16:48:25.452Z,19.30
2023-05-19T16:50:52.922Z,19.30
2023-05-19T16:53:21.614Z,19.40
2023-05-19T16:55:50.746Z,19.40
2023-05-19T16:58:21.814Z,19.30
2023-05-19T17:00:51.500Z,19.20
2023-05-19T17:03:19.271Z,19.20
2023-05-19T17:05:49.518Z,19.10
2023-05-19T17:08:16.972Z,19.10
2023-05-19T17:10:47.494Z,19.10
2023-05-19T17:13:15.259Z,19.00
2023-05-19T17:15:47.140Z,19.00
2023-05-19T17:18:16.332Z,19.00
2023-05-19T17:20:43.840Z,18.90
2023-05-19T17:23:11.294Z,18.90
2023-05-19T17:25:38.814Z,18.90
2023-05-19T17:28:07.661Z,18.90
2023-05-19T17:30:37.334Z,18.80
2023-05-19T17:33:05.158Z,18.80
2023-05-19T17:35:33.401Z,18.70
2023-05-19T17:38:01.094Z,18.60
2023-05-19T17:40:28.733Z,18.70
2023-05-19T17:42:56.223Z,18.70
2023-05-19T17:45:26.660Z,18.70
2023-05-19T17:47:54.190Z,18.60
2023-05-19T17:50:21.696Z,18.50
2023-05-19T17:52:49.697Z,18.40
2023-05-19T17:55:17.938Z,18.30
2023-05-19T17:57:47.372Z,18.20
2023-05-19T18:00:15.418Z,18.20
2023-05-19T18:02:45.083Z,18.20
2023-05-19T18:05:13.937Z,18.20
2023-05-19T18:07:42.710Z,18.10
2023-05-19T18:10:11.800Z,18.10
2023-05-19T18:12:39.269Z,18.10
2023-05-19T18:15:07.429Z,18.00
2023-05-19T18:17:34.932Z,18.00
2023-05-19T18:20:04.167Z,18.00
2023-05-19T18:22:31.910Z,17.90
2023-05-19T18:24:59.437Z,17.90
2023-05-19T18:27:27.849Z,17.80
2023-05-19T18:29:58.494Z,17.80
2023-05-19T18:32:26.055Z,17.80
2023-05-19T18:34:53.935Z,17.70
2023-05-19T18:37:22.735Z,17.70
2023-05-19T18:39:52.079Z,17.60
2023-05-19T18:42:21.157Z,17.50
2023-05-19T18:44:50.533Z,17.50
2023-05-19T18:47:22.786Z,17.40
2023-05-19T18:49:51.118Z,17.40
2023-05-19T18:52:19.858Z,17.40
2023-05-19T18:54:48.822Z,17.30
2023-05-19T18:57:16.740Z,17.30
2023-05-19T18:59:44.248Z,17.20
2023-05-19T19:02:11.976Z,17.10
2023-05-19T19:04:39.564Z,17.10
2023-05-19T19:07:07.063Z,17.10
2023-05-19T19:09:35.112Z,17.00
2023-05-19T19:12:04.544Z,17.00
2023-05-19T19:14:32.516Z,17.00
2023-05-19T19:16:59.984Z,16.90
2023-05-19T19:19:29.869Z,16.80
2023-05-19T19:21:57.546Z,16.90
2023-05-19T19:24:26.397Z,16.80
2023-05-19T19:26:53.901Z,16.70
2023-05-19T19:29:22.763Z,16.70
2023-05-19T19:31:50.398Z,16.70
2023-05-19T19:34:20.293Z,16.60
2023-05-19T19:36:51.423Z,16.60
2023-05-19T19:39:19.410Z,16.50
2023-05-19T19:41:46.943Z,16.50
2023-05-19T19:44:14.473Z,16.50
2023-05-19T19:46:43.392Z,16.40
2023-05-19T19:49:10.953Z,16.30
2023-05-19T19:51:38.426Z,16.30
2023-05-19T19:54:06.252Z,16.30
2023-05-19T19:56:33.782Z,16.30
2023-05-19T19:59:01.515Z,16.20
2023-05-19T20:01:29.183Z,16.20
2023-05-19T20:03:58.359Z,16.20
2023-05-19T20:06:26.018Z,16.20
2023-05-19T20:08:53.523Z,16.20
2023-05-19T20:11:22.900Z,16.10
2023-05-19T20:13:50.449Z,16.00
2023-05-19T20:16:18.048Z,16.00
2023-05-19T20:18:48.914Z,16.00
2023-05-19T20:21:17.911Z,16.00
2023-05-19T20:23:45.425Z,15.90
2023-05-19T20:26:14.876Z,15.90
2023-05-19T20:28:42.459Z,15.80
2023-05-19T20:31:09.915Z,15.80
2023-05-19T20:33:37.478Z,15.80
2023-05-19T20:36:06.166Z,15.80
2023-05-19T20:38:35.353Z,15.70
2023-05-19T20:41:03.916Z,15.70
2023-05-19T20:43:32.139Z,15.70
2023-05-19T20:46:01.424Z,15.70
2023-05-19T20:48:29.042Z,15.70
2023-05-19T20:50:57.177Z,15.70
2023-05-19T20:53:24.716Z,15.60
2023-05-19T20:55:53.632Z,15.60
2023-05-19T20:58:26.539Z,15.60
2023-05-19T21:00:57.821Z,15.50
2023-05-19T21:03:27.027Z,15.50
2023-05-19T21:05:55.597Z,15.50
2023-05-19T21:08:23.554Z,15.50
2023-05-19T21:10:51.253Z,15.40
2023-05-19T21:13:20.625Z,15.40
2023-05-19T21:15:48.131Z,15.40
2023-05-19T21:18:15.895Z,15.30
2023-05-19T21:20:44.623Z,15.30
2023-05-19T21:23:13.214Z,15.20
2023-05-19T21:25:41.301Z,15.20
2023-05-19T21:28:09.009Z,15.20
2023-05-19T21:30:37.849Z,15.20
2023-05-19T21:33:05.676Z,15.10
2023-05-19T21:35:33.198Z,15.10
2023-05-19T21:38:08.982Z,15.10
2023-05-19T21:40:46.955Z,15.00
2023-05-19T21:43:14.423Z,15.00
2023-05-19T21:45:43.486Z,15.00
2023-05-19T21:48:16.567Z,15.00
2023-05-19T21:50:45.368Z,14.90
2023-05-19T21:53:12.774Z,14.90
2023-05-19T21:55:40.770Z,14.80
2023-05-19T21:58:09.581Z,14.80
2023-05-19T22:00:37.235Z,14.80
2023-05-19T22:03:06.814Z,14.70
2023-05-19T22:05:35.378Z,14.70
2023-05-19T22:08:03.611Z,14.70
2023-05-19T22:10:31.301Z,14.70
2023-05-19T22:12:58.977Z,14.60
2023-05-19T22:15:34.036Z,14.60
2023-05-19T22:18:01.572Z,14.60
2023-05-19T22:20:30.648Z,14.60
2023-05-19T22:22:59.470Z,14.60
2023-05-19T22:25:27.058Z,14.50
2023-05-19T22:27:54.550Z,14.50
2023-05-19T22:30:22.496Z,14.50
2023-05-19T22:32:50.156Z,14.40
2023-05-19T22:35:18.851Z,14.40
2023-05-19T22:37:47.604Z,14.40
2023-05-19T22:40:15.136Z,14.40
2023-05-19T22:42:44.145Z,14.30
2023-05-19T22:45:11.788Z,14.30
2023-05-19T22:47:40.644Z,14.30
2023-05-19T22:50:12.432Z,14.30
2023-05-19T22:52:39.976Z,14.30
2023-05-19T22:55:10.163Z,14.30
2023-05-19T22:57:37.787Z,14.20
2023-05-19T23:00:06.687Z,14.20
2023-05-19T23:02:34.267Z,14.20
2023-05-19T23:05:08.856Z,14.10
2023-05-19T23:07:36.662Z,14.10
2023-05-19T23:10:06.087Z,14.10
2023-05-19T23:12:35.099Z,14.10
2023-05-19T23:15:03.844Z,14.00
2023-05-19T23:17:35.479Z,14.00
2023-05-19T23:20:13.588Z,13.90
2023-05-19T23:22:41.150Z,13.90
2023-05-19T23:25:08.931Z,13.90
2023-05-19T23:27:37.909Z,13.90
2023-05-19T23:30:12.072Z,13.90
2023-05-19T23:32:49.143Z,13.80
2023-05-19T23:35:17.505Z,13.80
2023-05-19T23:37:45.213Z,13.80
2023-05-19T23:40:13.115Z,13.70
2023-05-19T23:42:42.810Z,13.70
2023-05-19T23:45:10.898Z,13.70
2023-05-19T23:47:38.437Z,13.60
2023-05-19T23:50:06.443Z,13.60
2023-05-19T23:52:33.917Z,13.60
2023-05-19T23:55:01.464Z,13.60
2023-05-19T23:57:29.497Z,13.50
2023-05-19T23:59:58.244Z,13.40
